DLH454 EDDM-KLAX
Flight info
| Callsign | DLH454 |
|---|---|
| Flight time | N/A |
| Altitude | 34000 |
| Route | INPUD2S INPUD Y102 UPALA Z109 BAMAS L604 GASKA DCT MASEK DCT OTMEC DCT PAM DCT RAVLO Y70 OTBED DCT ABLUC DCT OZRAT DCT WETFI DCT REVNU DCT PIGET DCT SUNOT/M083F360 DCT 58N020W 58N030W 58N040W 57N050W DCT HOIST/N0480F360 DCT 5430N06000W/N0491F380 53N070W 51N080W 4830N09000W DCT KP12G DCT KP84A DCT KD63U/N0482F400 DCT KU51Q DCT PROMT Q88 HAKMN ANJLL4 |
| Aircraft | A388/J-SADE2E3GHIJ3J4J5LM1OP2RWXYZ/LB1D1 |
Departure
| Time | 2026-05-05 21:13 |
|---|---|
| Airport | Munich Airport (EDDM) |
Arrival
| Time | N/A |
|---|---|
| Airport | Los Angeles International Airport (KLAX) |
| Time | Latitude | Longitude | Altitude | Speed | Heading |
|---|---|---|---|---|---|
| 2026-05-05 20:56 | 48.35307 | 11.80169 | 1475 ft | 4 kts | 173° |
| 2026-05-05 20:56 | 48.35326 | 11.80165 | 1475 ft | 0 kts | 173° |
| 2026-05-05 21:01 | 48.35318 | 11.80167 | 1463 ft | 3 kts | 173° |
| 2026-05-05 21:01 | 48.35289 | 11.80172 | 1490 ft | 4 kts | 173° |
| 2026-05-05 21:01 | 48.35256 | 11.80179 | 1486 ft | 7 kts | 173° |
| 2026-05-05 21:01 | 48.35252 | 11.80179 | 1487 ft | 0 kts | 173° |
| 2026-05-05 21:02 | 48.35249 | 11.80180 | 1488 ft | 2 kts | 173° |
| 2026-05-05 21:02 | 48.35226 | 11.80183 | 1477 ft | 5 kts | 174° |
| 2026-05-05 21:02 | 48.35180 | 11.80188 | 1483 ft | 7 kts | 189° |
| 2026-05-05 21:02 | 48.35143 | 11.80151 | 1475 ft | 7 kts | 239° |
| 2026-05-05 21:03 | 48.35128 | 11.80071 | 1479 ft | 9 kts | 265° |
| 2026-05-05 21:03 | 48.35120 | 11.79960 | 1483 ft | 12 kts | 263° |
| 2026-05-05 21:03 | 48.35109 | 11.79826 | 1483 ft | 13 kts | 263° |
| 2026-05-05 21:03 | 48.35099 | 11.79710 | 1486 ft | 8 kts | 253° |
| 2026-05-05 21:04 | 48.35085 | 11.79667 | 1482 ft | 1 kts | 232° |
| 2026-05-05 21:04 | 48.35077 | 11.79653 | 1475 ft | 3 kts | 221° |
| 2026-05-05 21:04 | 48.35055 | 11.79633 | 1477 ft | 5 kts | 200° |
| 2026-05-05 21:04 | 48.35015 | 11.79628 | 1482 ft | 7 kts | 166° |
| 2026-05-05 21:05 | 48.34956 | 11.79664 | 1478 ft | 11 kts | 163° |
| 2026-05-05 21:05 | 48.34875 | 11.79687 | 1475 ft | 13 kts | 174° |
| 2026-05-05 21:05 | 48.34826 | 11.79702 | 1479 ft | 5 kts | 153° |
| 2026-05-05 21:05 | 48.34801 | 11.79733 | 1479 ft | 7 kts | 126° |
| 2026-05-05 21:06 | 48.34786 | 11.79812 | 1481 ft | 8 kts | 82° |
| 2026-05-05 21:06 | 48.34803 | 11.79885 | 1480 ft | 7 kts | 73° |
| 2026-05-05 21:06 | 48.34817 | 11.79972 | 1482 ft | 11 kts | 78° |
| 2026-05-05 21:06 | 48.34830 | 11.80102 | 1487 ft | 15 kts | 83° |
| 2026-05-05 21:07 | 48.34844 | 11.80260 | 1481 ft | 17 kts | 83° |
| 2026-05-05 21:07 | 48.34855 | 11.80437 | 1490 ft | 14 kts | 104° |
| 2026-05-05 21:07 | 48.34802 | 11.80527 | 1475 ft | 11 kts | 154° |
| 2026-05-05 21:07 | 48.34724 | 11.80565 | 1479 ft | 12 kts | 172° |
| 2026-05-05 21:08 | 48.34642 | 11.80572 | 1487 ft | 11 kts | 191° |
| 2026-05-05 21:08 | 48.34623 | 11.80559 | 1478 ft | 1 kts | 224° |
| 2026-05-05 21:08 | 48.34614 | 11.80546 | 1490 ft | 0 kts | 214° |
| 2026-05-05 21:11 | 48.34612 | 11.80545 | 1490 ft | 1 kts | 214° |
| 2026-05-05 21:11 | 48.34596 | 11.80529 | 1475 ft | 4 kts | 214° |
| 2026-05-05 21:11 | 48.34567 | 11.80497 | 1475 ft | 6 kts | 217° |
| 2026-05-05 21:11 | 48.34523 | 11.80444 | 1475 ft | 9 kts | 220° |
| 2026-05-05 21:12 | 48.34481 | 11.80370 | 1477 ft | 10 kts | 245° |
| 2026-05-05 21:12 | 48.34469 | 11.80294 | 1488 ft | 7 kts | 263° |
| 2026-05-05 21:12 | 48.34456 | 11.80130 | 1484 ft | 40 kts | 263° |
| 2026-05-05 21:12 | 48.34394 | 11.79332 | 1479 ft | 110 kts | 264° |
| 2026-05-05 21:13 | 48.34286 | 11.77916 | 1482 ft | 158 kts | 263° |
| 2026-05-05 21:13 | 48.34156 | 11.76152 | 1723 ft | 170 kts | 265° |
| 2026-05-05 21:13 | 48.34047 | 11.74395 | 2283 ft | 171 kts | 265° |
| 2026-05-05 21:13 | 48.33947 | 11.72627 | 2853 ft | 166 kts | 265° |
| 2026-05-05 21:14 | 48.33831 | 11.70916 | 3339 ft | 167 kts | 264° |
| 2026-05-05 21:14 | 48.33737 | 11.69715 | 3488 ft | 176 kts | 263° |
| 2026-05-05 21:14 | 48.33722 | 11.67834 | 3622 ft | 187 kts | 282° |
| 2026-05-05 21:14 | 48.34284 | 11.66027 | 3816 ft | 199 kts | 307° |
| 2026-05-05 21:15 | 48.35438 | 11.64773 | 3909 ft | 216 kts | 335° |
| 2026-05-05 21:15 | 48.36959 | 11.64310 | 3995 ft | 231 kts | 346° |
| 2026-05-05 21:15 | 48.38605 | 11.63939 | 4257 ft | 248 kts | 347° |
| 2026-05-05 21:15 | 48.40398 | 11.63557 | 4515 ft | 268 kts | 348° |
| 2026-05-05 21:16 | 48.42249 | 11.63165 | 5232 ft | 269 kts | 348° |
| 2026-05-05 21:16 | 48.44122 | 11.62754 | 5836 ft | 274 kts | 348° |
| 2026-05-05 21:16 | 48.46019 | 11.62323 | 6473 ft | 278 kts | 348° |
| 2026-05-05 21:16 | 48.47940 | 11.61877 | 7077 ft | 281 kts | 347° |
| 2026-05-05 21:17 | 48.49884 | 11.61423 | 7705 ft | 284 kts | 347° |
| 2026-05-05 21:17 | 48.51847 | 11.60963 | 8315 ft | 287 kts | 346° |
| 2026-05-05 21:17 | 48.53835 | 11.60496 | 8927 ft | 291 kts | 346° |
| 2026-05-05 21:17 | 48.55845 | 11.60024 | 9562 ft | 294 kts | 346° |
| 2026-05-05 21:18 | 48.57835 | 11.59315 | 10136 ft | 293 kts | 336° |
| 2026-05-05 21:18 | 48.59747 | 11.58179 | 10516 ft | 303 kts | 334° |
| 2026-05-05 21:18 | 48.61766 | 11.56984 | 10670 ft | 320 kts | 335° |
| 2026-05-05 21:18 | 48.63895 | 11.55750 | 10832 ft | 336 kts | 335° |
| 2026-05-05 21:19 | 48.66117 | 11.54470 | 11191 ft | 344 kts | 335° |
| 2026-05-05 21:19 | 48.68363 | 11.53180 | 11710 ft | 347 kts | 335° |
| 2026-05-05 21:19 | 48.70631 | 11.51875 | 12250 ft | 350 kts | 335° |
| 2026-05-05 21:19 | 48.72918 | 11.50555 | 12778 ft | 353 kts | 336° |
| 2026-05-05 21:20 | 48.75222 | 11.49222 | 13322 ft | 356 kts | 335° |
| 2026-05-05 21:20 | 48.77550 | 11.47871 | 13796 ft | 360 kts | 335° |
| 2026-05-05 21:20 | 48.79898 | 11.46507 | 14261 ft | 363 kts | 335° |
| 2026-05-05 21:20 | 48.82265 | 11.45131 | 14719 ft | 366 kts | 336° |
| 2026-05-05 21:21 | 48.84654 | 11.43740 | 15173 ft | 369 kts | 336° |
| 2026-05-05 21:21 | 48.87056 | 11.42341 | 15660 ft | 371 kts | 336° |
| 2026-05-05 21:21 | 48.89480 | 11.40927 | 16101 ft | 375 kts | 336° |
| 2026-05-05 21:21 | 48.91922 | 11.39501 | 16545 ft | 378 kts | 336° |
| 2026-05-05 21:22 | 48.94385 | 11.38061 | 16983 ft | 381 kts | 336° |
| 2026-05-05 21:22 | 48.96869 | 11.36607 | 17405 ft | 384 kts | 336° |
| 2026-05-05 21:22 | 48.99379 | 11.35136 | 17795 ft | 388 kts | 336° |
| 2026-05-05 21:22 | 49.01906 | 11.33655 | 18209 ft | 391 kts | 336° |
| 2026-05-05 21:23 | 49.04454 | 11.32159 | 18593 ft | 393 kts | 336° |
| 2026-05-05 21:23 | 49.07010 | 11.30657 | 18982 ft | 395 kts | 336° |
| 2026-05-05 21:23 | 49.09584 | 11.29142 | 19343 ft | 398 kts | 336° |
| 2026-05-05 21:23 | 49.12174 | 11.27617 | 19726 ft | 400 kts | 336° |
| 2026-05-05 21:24 | 49.14777 | 11.26081 | 20084 ft | 402 kts | 336° |
| 2026-05-05 21:24 | 49.17395 | 11.24536 | 20452 ft | 404 kts | 336° |
| 2026-05-05 21:24 | 49.20027 | 11.22986 | 20802 ft | 407 kts | 338° |
| 2026-05-05 21:24 | 49.22767 | 11.21784 | 21128 ft | 412 kts | 347° |
| 2026-05-05 21:25 | 49.25604 | 11.21067 | 21490 ft | 414 kts | 349° |
| 2026-05-05 21:25 | 49.28457 | 11.20340 | 21829 ft | 417 kts | 349° |
| 2026-05-05 21:25 | 49.31321 | 11.19586 | 22187 ft | 419 kts | 349° |
| 2026-05-05 21:25 | 49.34202 | 11.18823 | 22556 ft | 421 kts | 349° |
| 2026-05-05 21:26 | 49.37085 | 11.18062 | 23019 ft | 420 kts | 349° |
| 2026-05-05 21:26 | 49.39978 | 11.17301 | 23321 ft | 424 kts | 349° |
| 2026-05-05 21:26 | 49.42897 | 11.16533 | 23619 ft | 426 kts | 349° |
| 2026-05-05 21:26 | 49.45788 | 11.15773 | 23866 ft | 429 kts | 349° |
| 2026-05-05 21:27 | 49.48735 | 11.14998 | 24160 ft | 431 kts | 349° |
| 2026-05-05 21:27 | 49.51735 | 11.14208 | 24463 ft | 433 kts | 349° |
| 2026-05-05 21:27 | 49.54672 | 11.13433 | 24746 ft | 435 kts | 349° |
| 2026-05-05 21:27 | 49.57658 | 11.12645 | 25038 ft | 437 kts | 349° |
| 2026-05-05 21:28 | 49.60703 | 11.11840 | 25345 ft | 439 kts | 349° |
| 2026-05-05 21:28 | 49.63682 | 11.11052 | 25645 ft | 441 kts | 349° |
| 2026-05-05 21:28 | 49.66714 | 11.10248 | 25947 ft | 444 kts | 350° |
| 2026-05-05 21:28 | 49.69775 | 11.09437 | 26180 ft | 448 kts | 350° |
| 2026-05-05 21:29 | 49.72853 | 11.08620 | 26527 ft | 450 kts | 350° |
| 2026-05-05 21:29 | 49.75946 | 11.07798 | 26851 ft | 452 kts | 350° |
| 2026-05-05 21:29 | 49.79052 | 11.06970 | 27185 ft | 455 kts | 350° |
| 2026-05-05 21:29 | 49.82179 | 11.06137 | 27519 ft | 457 kts | 350° |
| 2026-05-05 21:30 | 49.85300 | 11.05133 | 27843 ft | 459 kts | 341° |
| 2026-05-05 21:30 | 49.88239 | 11.03197 | 28199 ft | 460 kts | 328° |
| 2026-05-05 21:30 | 49.90836 | 11.00321 | 28464 ft | 461 kts | 316° |
| 2026-05-05 21:30 | 49.93093 | 10.96765 | 28742 ft | 463 kts | 311° |
| 2026-05-05 21:31 | 49.95275 | 10.93078 | 29203 ft | 464 kts | 311° |
| 2026-05-05 21:31 | 49.97467 | 10.89386 | 29539 ft | 467 kts | 311° |
| 2026-05-05 21:31 | 49.99692 | 10.85694 | 29869 ft | 470 kts | 312° |
| 2026-05-05 21:31 | 50.01946 | 10.81993 | 30184 ft | 472 kts | 312° |
| 2026-05-05 21:32 | 50.04217 | 10.78282 | 30484 ft | 474 kts | 312° |
| 2026-05-05 21:32 | 50.06498 | 10.74560 | 30796 ft | 477 kts | 312° |
| 2026-05-05 21:32 | 50.08791 | 10.70816 | 31090 ft | 479 kts | 312° |
| 2026-05-05 21:32 | 50.11095 | 10.67051 | 31387 ft | 481 kts | 312° |
| 2026-05-05 21:33 | 50.13413 | 10.63258 | 31679 ft | 484 kts | 312° |
| 2026-05-05 21:33 | 50.15739 | 10.59446 | 31966 ft | 486 kts | 312° |
| 2026-05-05 21:33 | 50.18073 | 10.55611 | 32161 ft | 491 kts | 313° |
| 2026-05-05 21:33 | 50.20432 | 10.51728 | 32419 ft | 494 kts | 313° |
| 2026-05-05 21:34 | 50.22797 | 10.47827 | 32733 ft | 495 kts | 313° |
| 2026-05-05 21:34 | 50.25187 | 10.43938 | 33021 ft | 498 kts | 313° |
| 2026-05-05 21:34 | 50.27612 | 10.40055 | 33297 ft | 500 kts | 313° |
| 2026-05-05 21:34 | 50.30047 | 10.36159 | 33581 ft | 502 kts | 313° |
| 2026-05-05 21:35 | 50.32495 | 10.32229 | 33826 ft | 505 kts | 313° |
| 2026-05-05 21:35 | 50.34963 | 10.28250 | 33814 ft | 514 kts | 313° |
| 2026-05-05 21:35 | 50.39786 | 10.19922 | 33841 ft | 513 kts | 309° |
| 2026-05-05 21:36 | 50.44448 | 10.11417 | 33806 ft | 516 kts | 310° |
| 2026-05-05 21:36 | 50.49171 | 10.02887 | 33822 ft | 517 kts | 310° |
| 2026-05-05 21:37 | 50.53900 | 9.94370 | 33823 ft | 517 kts | 310° |
| 2026-05-05 21:37 | 50.58626 | 9.85838 | 33817 ft | 517 kts | 310° |
| 2026-05-05 21:38 | 50.63342 | 9.77293 | 33813 ft | 518 kts | 310° |
| 2026-05-05 21:38 | 50.68061 | 9.68713 | 33817 ft | 518 kts | 309° |
| 2026-05-05 21:39 | 50.72676 | 9.60094 | 33820 ft | 517 kts | 304° |
| 2026-05-05 21:39 | 50.76463 | 9.50470 | 33823 ft | 516 kts | 299° |
| 2026-05-05 21:40 | 50.80165 | 9.40757 | 33827 ft | 516 kts | 299° |
| 2026-05-05 21:40 | 50.83869 | 9.31019 | 33817 ft | 517 kts | 299° |
| 2026-05-05 21:41 | 50.87555 | 9.21253 | 33819 ft | 517 kts | 299° |
| 2026-05-05 21:41 | 50.91228 | 9.11475 | 33813 ft | 516 kts | 298° |
| 2026-05-05 21:42 | 50.94894 | 9.01678 | 33814 ft | 516 kts | 298° |
| 2026-05-05 21:42 | 50.98547 | 8.91878 | 33817 ft | 516 kts | 298° |
| 2026-05-05 21:43 | 51.02190 | 8.82067 | 33799 ft | 516 kts | 298° |
| 2026-05-05 21:43 | 51.05831 | 8.72223 | 33807 ft | 516 kts | 298° |
| 2026-05-05 21:44 | 51.09463 | 8.62366 | 33813 ft | 517 kts | 298° |
| 2026-05-05 21:44 | 51.13089 | 8.52489 | 33830 ft | 517 kts | 298° |
| 2026-05-05 21:45 | 51.16709 | 8.42588 | 33818 ft | 517 kts | 298° |
| 2026-05-05 21:45 | 51.20316 | 8.32687 | 33818 ft | 516 kts | 298° |
| 2026-05-05 21:46 | 51.23914 | 8.22770 | 33823 ft | 516 kts | 297° |
| 2026-05-05 21:46 | 51.27500 | 8.12846 | 33823 ft | 516 kts | 297° |
| 2026-05-05 21:47 | 51.31054 | 8.02980 | 33813 ft | 516 kts | 297° |
| 2026-05-05 21:47 | 51.34619 | 7.93037 | 33814 ft | 515 kts | 297° |
| 2026-05-05 21:48 | 51.38174 | 7.83085 | 33810 ft | 515 kts | 297° |
| 2026-05-05 21:48 | 51.41719 | 7.73120 | 33810 ft | 515 kts | 297° |
| 2026-05-05 21:49 | 51.45256 | 7.63141 | 33822 ft | 515 kts | 297° |
| 2026-05-05 21:49 | 51.48788 | 7.53133 | 33828 ft | 515 kts | 297° |
| 2026-05-05 21:50 | 51.52312 | 7.43113 | 33839 ft | 516 kts | 296° |
| 2026-05-05 21:50 | 51.55830 | 7.33068 | 33846 ft | 516 kts | 296° |
| 2026-05-05 21:51 | 51.59337 | 7.23017 | 33868 ft | 515 kts | 296° |
| 2026-05-05 21:51 | 51.62833 | 7.12957 | 33875 ft | 514 kts | 296° |
| 2026-05-05 21:52 | 51.68042 | 6.97887 | 33859 ft | 513 kts | 296° |
| 2026-05-05 21:53 | 51.71494 | 6.87850 | 33852 ft | 512 kts | 296° |
| 2026-05-05 21:53 | 51.74937 | 6.77802 | 33860 ft | 511 kts | 296° |
| 2026-05-05 21:54 | 51.78370 | 6.67739 | 33845 ft | 512 kts | 296° |
| 2026-05-05 21:54 | 51.81795 | 6.57663 | 33850 ft | 512 kts | 295° |
| 2026-05-05 21:55 | 51.85214 | 6.47561 | 33853 ft | 512 kts | 295° |
| 2026-05-05 21:55 | 51.88624 | 6.37449 | 33893 ft | 511 kts | 295° |
| 2026-05-05 21:56 | 51.91991 | 6.27421 | 33856 ft | 508 kts | 295° |
| 2026-05-05 21:56 | 51.95330 | 6.17441 | 33874 ft | 502 kts | 295° |
| 2026-05-05 21:57 | 51.98649 | 6.07470 | 33877 ft | 503 kts | 295° |
| 2026-05-05 21:57 | 52.01964 | 5.97476 | 33878 ft | 503 kts | 295° |
| 2026-05-05 21:58 | 52.05277 | 5.87466 | 33893 ft | 503 kts | 295° |
| 2026-05-05 21:58 | 52.08642 | 5.77525 | 33877 ft | 502 kts | 297° |
| 2026-05-05 21:59 | 52.11672 | 5.69384 | 33867 ft | 501 kts | 298° |
| 2026-05-05 21:59 | 52.15846 | 5.58106 | 33878 ft | 499 kts | 297° |
| 2026-05-05 22:00 | 52.18791 | 5.50029 | 33889 ft | 498 kts | 297° |
| 2026-05-05 22:00 | 52.22310 | 5.40315 | 33901 ft | 497 kts | 297° |
| 2026-05-05 22:01 | 52.25811 | 5.30612 | 33892 ft | 496 kts | 297° |
| 2026-05-05 22:01 | 52.29300 | 5.20908 | 33883 ft | 495 kts | 297° |
| 2026-05-05 22:02 | 52.32767 | 5.11230 | 33882 ft | 495 kts | 297° |
| 2026-05-05 22:02 | 52.35960 | 5.01187 | 33879 ft | 493 kts | 293° |
| 2026-05-05 22:03 | 52.39073 | 4.91190 | 33907 ft | 493 kts | 294° |
| 2026-05-05 22:03 | 52.42179 | 4.81168 | 33911 ft | 494 kts | 293° |
| 2026-05-05 22:04 | 52.45268 | 4.71131 | 33934 ft | 493 kts | 293° |
| 2026-05-05 22:04 | 52.48343 | 4.61093 | 33948 ft | 492 kts | 293° |
| 2026-05-05 22:05 | 52.51406 | 4.51051 | 33943 ft | 491 kts | 293° |
| 2026-05-05 22:05 | 52.54454 | 4.41016 | 33937 ft | 491 kts | 293° |
| 2026-05-05 22:06 | 52.57492 | 4.30972 | 33935 ft | 490 kts | 292° |
| 2026-05-05 22:06 | 52.60517 | 4.20930 | 33939 ft | 490 kts | 292° |
| 2026-05-05 22:07 | 52.63533 | 4.10874 | 33939 ft | 490 kts | 292° |
| 2026-05-05 22:07 | 52.66541 | 4.00804 | 33958 ft | 490 kts | 292° |
| 2026-05-05 22:08 | 52.69538 | 3.90729 | 33953 ft | 490 kts | 292° |
| 2026-05-05 22:08 | 52.72504 | 3.80715 | 33974 ft | 488 kts | 292° |
| 2026-05-05 22:09 | 52.75475 | 3.70642 | 33965 ft | 487 kts | 292° |
| 2026-05-05 22:09 | 52.78430 | 3.60580 | 33966 ft | 486 kts | 292° |
| 2026-05-05 22:10 | 52.81371 | 3.50525 | 33983 ft | 486 kts | 291° |
| 2026-05-05 22:10 | 52.84300 | 3.40467 | 33965 ft | 485 kts | 291° |
| 2026-05-05 22:11 | 52.87218 | 3.30403 | 33960 ft | 485 kts | 291° |
| 2026-05-05 22:11 | 52.90124 | 3.20338 | 33957 ft | 484 kts | 291° |
| 2026-05-05 22:12 | 52.92356 | 3.09917 | 33953 ft | 477 kts | 279° |
| 2026-05-05 22:12 | 52.93751 | 2.99190 | 33973 ft | 477 kts | 278° |
| 2026-05-05 22:13 | 52.95180 | 2.88458 | 33968 ft | 477 kts | 278° |
| 2026-05-05 22:13 | 52.96588 | 2.77718 | 33971 ft | 476 kts | 278° |
| 2026-05-05 22:14 | 52.97978 | 2.66973 | 33980 ft | 476 kts | 278° |
| 2026-05-05 22:14 | 52.99355 | 2.56251 | 33992 ft | 474 kts | 278° |
| 2026-05-05 22:15 | 53.00719 | 2.45532 | 33965 ft | 474 kts | 278° |
| 2026-05-05 22:15 | 53.02073 | 2.34818 | 33960 ft | 474 kts | 278° |
| 2026-05-05 22:16 | 53.03418 | 2.24091 | 33963 ft | 474 kts | 278° |
| 2026-05-05 22:16 | 53.04754 | 2.13355 | 33971 ft | 475 kts | 278° |
| 2026-05-05 22:17 | 53.06082 | 2.02597 | 33986 ft | 475 kts | 278° |
| 2026-05-05 22:17 | 53.07399 | 1.91840 | 33983 ft | 475 kts | 278° |
| 2026-05-05 22:18 | 53.08706 | 1.81085 | 33980 ft | 474 kts | 278° |
| 2026-05-05 22:18 | 53.10003 | 1.70324 | 33981 ft | 474 kts | 278° |
| 2026-05-05 22:19 | 53.11279 | 1.59646 | 33986 ft | 474 kts | 278° |
| 2026-05-05 22:19 | 53.12554 | 1.48889 | 34003 ft | 473 kts | 278° |
| 2026-05-05 22:20 | 53.13818 | 1.38141 | 34010 ft | 472 kts | 278° |
| 2026-05-05 22:20 | 53.15069 | 1.27414 | 33996 ft | 471 kts | 278° |
| 2026-05-05 22:21 | 53.16308 | 1.16697 | 34000 ft | 471 kts | 278° |
| 2026-05-05 22:21 | 53.17537 | 1.05983 | 33996 ft | 470 kts | 278° |
| 2026-05-05 22:22 | 53.18755 | 0.95269 | 33985 ft | 471 kts | 278° |
| 2026-05-05 22:22 | 53.19967 | 0.84522 | 33990 ft | 472 kts | 278° |
| 2026-05-05 22:23 | 53.21169 | 0.73768 | 34001 ft | 472 kts | 278° |
| 2026-05-05 22:23 | 53.22365 | 0.62979 | 34006 ft | 473 kts | 278° |
| 2026-05-05 22:24 | 53.23554 | 0.52175 | 34021 ft | 474 kts | 278° |
| 2026-05-05 22:24 | 53.24732 | 0.41346 | 34019 ft | 474 kts | 278° |
| 2026-05-05 22:25 | 53.25900 | 0.30505 | 34039 ft | 474 kts | 279° |
| 2026-05-05 22:25 | 53.27060 | 0.19663 | 34027 ft | 474 kts | 279° |
| 2026-05-05 22:26 | 53.28210 | 0.08822 | 34026 ft | 474 kts | 279° |
| 2026-05-05 22:26 | 53.29396 | -0.02002 | 34023 ft | 474 kts | 281° |
| 2026-05-05 22:27 | 53.30854 | -0.12757 | 34017 ft | 475 kts | 282° |
| 2026-05-05 22:27 | 53.32313 | -0.23544 | 34028 ft | 476 kts | 282° |
| 2026-05-05 22:28 | 53.33731 | -0.34362 | 34046 ft | 476 kts | 282° |
| 2026-05-05 22:28 | 53.35131 | -0.45201 | 34055 ft | 477 kts | 281° |
| 2026-05-05 22:29 | 53.36520 | -0.56053 | 34057 ft | 477 kts | 281° |
| 2026-05-05 22:29 | 53.37899 | -0.66914 | 34060 ft | 477 kts | 281° |
| 2026-05-05 22:30 | 53.39260 | -0.77704 | 34057 ft | 477 kts | 281° |
| 2026-05-05 22:30 | 53.40618 | -0.88570 | 34063 ft | 476 kts | 281° |
| 2026-05-05 22:31 | 53.41967 | -0.99437 | 34060 ft | 476 kts | 281° |
| 2026-05-05 22:31 | 53.43305 | -1.10306 | 34065 ft | 476 kts | 281° |
| 2026-05-05 22:32 | 53.44633 | -1.21184 | 34062 ft | 476 kts | 281° |
| 2026-05-05 22:32 | 53.45951 | -1.32062 | 34063 ft | 476 kts | 281° |
| 2026-05-05 22:33 | 53.47260 | -1.42951 | 34059 ft | 476 kts | 280° |
| 2026-05-05 22:33 | 53.48558 | -1.53843 | 34066 ft | 476 kts | 280° |
| 2026-05-05 22:34 | 53.49844 | -1.64720 | 34101 ft | 474 kts | 280° |
| 2026-05-05 22:34 | 53.51113 | -1.75553 | 34094 ft | 472 kts | 280° |
| 2026-05-05 22:35 | 53.52370 | -1.86367 | 34077 ft | 471 kts | 279° |
| 2026-05-05 22:35 | 53.53614 | -1.97160 | 34067 ft | 470 kts | 279° |
| 2026-05-05 22:36 | 53.54846 | -2.07932 | 34055 ft | 469 kts | 279° |
| 2026-05-05 22:36 | 53.56066 | -2.18704 | 34050 ft | 468 kts | 279° |
| 2026-05-05 22:37 | 53.57275 | -2.29458 | 34045 ft | 468 kts | 279° |
| 2026-05-05 22:37 | 53.58473 | -2.40210 | 34040 ft | 467 kts | 279° |
| 2026-05-05 22:38 | 53.59661 | -2.50970 | 34037 ft | 468 kts | 279° |
| 2026-05-05 22:38 | 53.60841 | -2.61746 | 34034 ft | 468 kts | 279° |
| 2026-05-05 22:39 | 53.62013 | -2.72545 | 34045 ft | 469 kts | 279° |
| 2026-05-05 22:39 | 53.63177 | -2.83362 | 34055 ft | 470 kts | 279° |
| 2026-05-05 22:40 | 53.64333 | -2.94203 | 34058 ft | 471 kts | 279° |
| 2026-05-05 22:40 | 53.65481 | -3.05071 | 34065 ft | 471 kts | 279° |
| 2026-05-05 22:41 | 53.66620 | -3.15948 | 34068 ft | 471 kts | 279° |
| 2026-05-05 22:41 | 53.67748 | -3.26831 | 34067 ft | 471 kts | 279° |
| 2026-05-05 22:42 | 53.68868 | -3.37721 | 34067 ft | 471 kts | 279° |